createdAt,value
2022-10-20T00:01:11.402Z,95846.09
2022-10-20T00:03:38.023Z,95841.09
2022-10-20T00:06:11.460Z,95846.91
2022-10-20T00:08:39.439Z,95843.84
2022-10-20T00:11:07.055Z,95834.81
2022-10-20T00:13:33.647Z,95839.66
2022-10-20T00:16:00.815Z,95840.94
2022-10-20T00:18:27.539Z,95837.53
2022-10-20T00:20:54.799Z,95830.44
2022-10-20T00:23:21.964Z,95827.84
2022-10-20T00:25:48.581Z,95830.28
2022-10-20T00:28:15.334Z,95840.78
2022-10-20T00:30:42.071Z,95829.78
2022-10-20T00:33:08.977Z,95831.25
2022-10-20T00:35:38.476Z,95824.47
2022-10-20T00:38:05.115Z,95816.72
2022-10-20T00:40:31.726Z,95819.13
2022-10-20T00:42:58.273Z,95809.91
2022-10-20T00:45:25.353Z,95810.41
2022-10-20T00:47:55.980Z,95802.31
2022-10-20T00:50:33.366Z,95795.72
2022-10-20T00:53:02.468Z,95784.56
2022-10-20T00:55:32.447Z,95787.13
2022-10-20T00:58:00.817Z,95801.19
2022-10-20T01:00:28.370Z,95785.38
2022-10-20T01:02:59.438Z,95779.22
2022-10-20T01:05:26.226Z,95774.69
2022-10-20T01:07:52.763Z,95780.84
2022-10-20T01:10:19.843Z,95784.03
2022-10-20T01:13:15.940Z,95793.75
2022-10-20T01:15:57.512Z,95789.72
2022-10-20T01:18:27.000Z,95800.03
2022-10-20T01:21:31.219Z,95806.03
2022-10-20T01:24:03.653Z,95806.03
2022-10-20T01:26:33.118Z,95801.00
2022-10-20T01:29:11.690Z,95803.56
2022-10-20T01:31:48.982Z,95797.28
2022-10-20T01:34:21.663Z,95799.41
2022-10-20T01:36:56.463Z,95789.56
2022-10-20T01:39:34.067Z,95798.94
2022-10-20T01:42:06.112Z,95785.50
2022-10-20T01:44:34.846Z,95789.06
2022-10-20T01:47:02.797Z,95777.41
2022-10-20T01:49:29.423Z,95769.38
2022-10-20T01:51:56.856Z,95762.09
2022-10-20T01:54:28.870Z,95750.94
2022-10-20T01:57:07.201Z,95749.66
2022-10-20T01:59:48.418Z,95749.19
2022-10-20T02:02:25.597Z,95751.47
2022-10-20T02:05:16.696Z,95746.28
2022-10-20T02:07:43.509Z,95727.41
2022-10-20T02:10:17.091Z,95736.91
2022-10-20T02:12:49.611Z,95733.84
2022-10-20T02:15:22.594Z,95719.47
2022-10-20T02:17:55.190Z,95710.09
2022-10-20T02:20:21.909Z,95705.91
2022-10-20T02:22:49.489Z,95701.69
2022-10-20T02:25:16.353Z,95705.22
2022-10-20T02:27:47.904Z,95695.69
2022-10-20T02:30:17.765Z,95683.28
2022-10-20T02:32:49.606Z,95687.28
2022-10-20T02:35:23.171Z,95685.69
2022-10-20T02:37:49.890Z,95687.75
2022-10-20T02:40:16.571Z,95678.44
2022-10-20T02:42:44.017Z,95675.34
2022-10-20T02:45:11.184Z,95675.81
2022-10-20T02:47:38.229Z,95674.22
2022-10-20T02:50:07.184Z,95677.94
2022-10-20T02:52:34.054Z,95682.97
2022-10-20T02:55:00.721Z,95681.00
2022-10-20T02:57:27.258Z,95679.09
2022-10-20T02:59:54.266Z,95672.94
2022-10-20T03:02:20.878Z,95671.16
2022-10-20T03:04:47.500Z,95672.16
2022-10-20T03:07:14.190Z,95661.16
2022-10-20T03:09:40.824Z,95665.38
2022-10-20T03:12:07.389Z,95659.41
2022-10-20T03:14:33.907Z,95655.03
2022-10-20T03:17:00.402Z,95653.44
2022-10-20T03:19:27.007Z,95650.97
2022-10-20T03:21:53.672Z,95646.16
2022-10-20T03:24:20.236Z,95652.13
2022-10-20T03:26:46.798Z,95640.66
2022-10-20T03:29:13.335Z,95651.03
2022-10-20T03:31:39.924Z,95644.72
2022-10-20T03:34:06.542Z,95655.03
2022-10-20T03:36:33.218Z,95653.09
2022-10-20T03:38:59.751Z,95637.28
2022-10-20T03:41:26.318Z,95635.50
2022-10-20T03:43:52.853Z,95635.19
2022-10-20T03:46:19.418Z,95634.72
2022-10-20T03:48:45.988Z,95643.44
2022-10-20T03:51:14.100Z,95627.94
2022-10-20T03:53:41.035Z,95627.28
2022-10-20T03:56:12.968Z,95639.75
2022-10-20T03:58:39.542Z,95640.53
2022-10-20T04:01:07.558Z,95636.97
2022-10-20T04:03:34.097Z,95643.78
2022-10-20T04:06:01.139Z,95626.00
2022-10-20T04:08:27.694Z,95622.13
2022-10-20T04:10:54.246Z,95611.03
2022-10-20T04:13:20.781Z,95613.59
2022-10-20T04:15:47.331Z,95600.78
2022-10-20T04:18:14.014Z,95603.09
2022-10-20T04:20:44.322Z,95607.09
2022-10-20T04:23:11.605Z,95607.28
2022-10-20T04:25:45.528Z,95594.34
2022-10-20T04:28:13.092Z,95596.31
2022-10-20T04:30:39.930Z,95621.00
2022-10-20T04:33:06.549Z,95628.06
2022-10-20T04:35:33.605Z,95619.34
2022-10-20T04:38:00.266Z,95618.59
2022-10-20T04:40:26.858Z,95615.63
2022-10-20T04:42:53.439Z,95623.06
2022-10-20T04:45:20.001Z,95626.78
2022-10-20T04:47:46.655Z,95632.66
2022-10-20T04:50:13.359Z,95632.13
2022-10-20T04:52:39.963Z,95639.25
2022-10-20T04:55:06.875Z,95629.91
2022-10-20T04:57:33.795Z,95637.97
2022-10-20T05:00:00.643Z,95642.34
2022-10-20T05:02:27.240Z,95628.09
2022-10-20T05:04:55.934Z,95612.66
2022-10-20T05:07:22.534Z,95611.47
2022-10-20T05:09:49.273Z,95595.69
2022-10-20T05:12:15.821Z,95599.06
2022-10-20T05:14:42.539Z,95591.34
2022-10-20T05:17:10.059Z,95591.34
2022-10-20T05:19:36.847Z,95602.28
2022-10-20T05:22:03.508Z,95610.69
2022-10-20T05:24:30.319Z,95599.59
2022-10-20T05:26:56.966Z,95600.28
2022-10-20T05:29:24.382Z,95606.09
2022-10-20T05:31:50.923Z,95606.75
2022-10-20T05:34:17.466Z,95610.47
2022-10-20T05:36:43.989Z,95620.00
2022-10-20T05:39:11.716Z,95615.66
2022-10-20T05:41:39.242Z,95609.66
2022-10-20T05:44:10.968Z,95615.16
2022-10-20T05:46:41.118Z,95612.91
2022-10-20T05:49:10.866Z,95606.75
2022-10-20T05:51:37.408Z,95601.31
2022-10-20T05:54:04.307Z,95595.63
2022-10-20T05:56:31.886Z,95584.66
2022-10-20T05:58:58.522Z,95582.06
2022-10-20T06:01:28.043Z,95580.59
2022-10-20T06:03:59.011Z,95583.03
2022-10-20T06:06:28.386Z,95578.41
2022-10-20T06:08:55.862Z,95581.38
2022-10-20T06:11:23.255Z,95588.28
2022-10-20T06:13:52.639Z,95589.63
2022-10-20T06:16:22.230Z,95584.00
2022-10-20T06:18:49.038Z,95586.22
2022-10-20T06:24:10.755Z,95578.03
2022-10-20T06:26:38.498Z,95573.19
2022-10-20T06:29:07.343Z,95576.78
2022-10-20T06:31:42.772Z,95584.81
2022-10-20T06:34:29.616Z,95575.25
2022-10-20T06:36:56.179Z,95587.84
2022-10-20T06:39:24.931Z,95589.78
2022-10-20T06:41:53.683Z,95587.53
2022-10-20T06:44:22.734Z,95587.81
2022-10-20T06:46:52.199Z,95594.78
2022-10-20T06:49:18.942Z,95609.75
2022-10-20T06:51:45.637Z,95625.28
2022-10-20T06:54:12.224Z,95626.88
2022-10-20T06:56:40.337Z,95625.75
2022-10-20T06:59:07.075Z,95614.28
2022-10-20T07:01:36.130Z,95612.53
2022-10-20T07:04:10.133Z,95616.41
2022-10-20T07:06:41.662Z,95606.53
2022-10-20T07:09:12.581Z,95628.59
2022-10-20T07:11:39.752Z,95645.69
2022-10-20T07:14:06.351Z,95637.13
2022-10-20T07:16:34.922Z,95641.00
2022-10-20T07:19:03.934Z,95627.88
2022-10-20T07:21:35.652Z,95634.19
2022-10-20T07:24:07.229Z,95634.72
2022-10-20T07:26:36.024Z,95636.59
2022-10-20T07:29:04.319Z,95654.22
2022-10-20T07:31:39.891Z,95645.03
2022-10-20T07:34:26.314Z,95629.59
2022-10-20T07:36:54.104Z,95603.59
2022-10-20T07:39:20.939Z,95597.72
2022-10-20T07:41:48.266Z,95600.66
2022-10-20T07:44:15.852Z,95589.38
2022-10-20T07:46:42.435Z,95577.81
2022-10-20T07:51:55.831Z,95613.28
2022-10-20T07:54:22.407Z,95632.81
2022-10-20T07:56:49.545Z,95639.16
2022-10-20T07:59:16.600Z,95625.41
2022-10-20T08:01:44.049Z,95631.25
2022-10-20T08:04:11.089Z,95627.75
2022-10-20T08:06:39.241Z,95628.22
2022-10-20T08:09:07.703Z,95619.78
2022-10-20T08:11:34.832Z,95621.66
2022-10-20T08:14:01.434Z,95619.84
2022-10-20T08:16:30.699Z,95627.28
2022-10-20T08:19:11.773Z,95623.91
2022-10-20T08:21:38.384Z,95621.91
2022-10-20T08:24:05.138Z,95610.13
2022-10-20T08:26:31.703Z,95618.69
2022-10-20T08:28:58.474Z,95615.84
2022-10-20T08:31:25.002Z,95614.94
2022-10-20T08:33:53.119Z,95601.31
2022-10-20T08:36:20.941Z,95607.31
2022-10-20T08:38:47.790Z,95610.13
2022-10-20T08:41:34.571Z,95617.66
2022-10-20T08:44:03.380Z,95616.72
2022-10-20T08:46:38.413Z,95613.38
2022-10-20T08:49:11.781Z,95610.44
2022-10-20T08:51:38.640Z,95604.25
2022-10-20T08:54:13.732Z,95592.44
2022-10-20T08:56:40.487Z,95586.69
2022-10-20T08:59:25.275Z,95594.72
2022-10-20T09:01:52.368Z,95578.09
2022-10-20T09:04:23.350Z,95576.63
2022-10-20T09:07:05.910Z,95570.44
2022-10-20T09:09:33.573Z,95579.28
2022-10-20T09:12:05.665Z,95576.81
2022-10-20T09:14:36.159Z,95570.31
2022-10-20T09:17:04.614Z,95575.66
2022-10-20T09:19:32.170Z,95583.78
2022-10-20T09:22:04.971Z,95591.50
2022-10-20T09:24:32.214Z,95600.06
2022-10-20T09:27:21.652Z,95609.34
2022-10-20T09:29:48.213Z,95619.66
2022-10-20T09:32:45.415Z,95615.44
2022-10-20T09:35:15.249Z,95631.06
2022-10-20T09:37:44.178Z,95626.38
2022-10-20T09:40:16.261Z,95629.47
2022-10-20T09:42:53.951Z,95626.38
2022-10-20T09:45:28.809Z,95624.69
2022-10-20T09:48:29.369Z,95618.63
2022-10-20T09:50:58.669Z,95618.41
2022-10-20T09:53:48.264Z,95622.44
2022-10-20T09:56:27.249Z,95626.00
2022-10-20T09:58:57.535Z,95615.28
2022-10-20T10:01:24.270Z,95605.13
2022-10-20T10:04:01.983Z,95598.53
2022-10-20T10:06:37.601Z,95602.16
2022-10-20T10:09:26.404Z,95600.88
2022-10-20T10:12:16.988Z,95570.66
2022-10-20T10:14:58.707Z,95585.81
2022-10-20T10:17:44.180Z,95587.91
2022-10-20T10:20:13.567Z,95584.31
2022-10-20T10:22:41.428Z,95583.66
2022-10-20T10:25:18.141Z,95577.00
2022-10-20T10:27:58.799Z,95562.91
2022-10-20T10:30:27.806Z,95575.63
2022-10-20T10:32:55.458Z,95585.97
2022-10-20T10:35:31.100Z,95593.34
2022-10-20T10:37:58.795Z,95602.53
2022-10-20T10:40:57.802Z,95593.44
2022-10-20T10:43:48.696Z,95595.97
2022-10-20T10:46:27.300Z,95591.72
2022-10-20T10:49:15.777Z,95591.88
2022-10-20T10:51:48.267Z,95588.09
2022-10-20T10:54:52.983Z,95579.78
2022-10-20T10:57:43.887Z,95579.38
2022-10-20T11:00:22.078Z,95552.34
2022-10-20T11:03:00.824Z,95553.31
2022-10-20T11:05:53.252Z,95551.78
2022-10-20T11:08:40.782Z,95555.69
2022-10-20T11:11:29.478Z,95549.50
2022-10-20T11:14:15.201Z,95538.50
2022-10-20T11:16:51.958Z,95545.38
2022-10-20T11:19:32.682Z,95549.00
2022-10-20T11:22:26.655Z,95548.03
2022-10-20T11:25:05.723Z,95538.59
2022-10-20T11:27:36.651Z,95536.41
2022-10-20T11:30:15.475Z,95544.06
2022-10-20T11:33:20.268Z,95545.75
2022-10-20T11:35:57.078Z,95536.50
2022-10-20T11:38:31.295Z,95533.22
2022-10-20T11:41:03.128Z,95535.47
2022-10-20T11:44:02.389Z,95539.34
2022-10-20T11:46:49.146Z,95539.72
2022-10-20T11:49:16.025Z,95534.28
2022-10-20T11:52:13.552Z,95540.88
2022-10-20T11:54:48.971Z,95543.59
2022-10-20T11:57:36.425Z,95539.53
2022-10-20T12:00:35.817Z,95545.16
2022-10-20T12:03:29.779Z,95533.97
2022-10-20T12:06:21.102Z,95529.78
2022-10-20T12:09:14.148Z,95541.97
2022-10-20T12:11:56.454Z,95521.78
2022-10-20T12:14:30.428Z,95527.31
2022-10-20T12:17:11.167Z,95524.09
2022-10-20T12:19:37.932Z,95527.88
2022-10-20T12:22:07.168Z,95525.13
2022-10-20T12:24:33.649Z,95532.72
2022-10-20T12:27:09.014Z,95526.41
2022-10-20T12:29:35.505Z,95529.78
2022-10-20T12:32:25.265Z,95513.41
2022-10-20T12:35:22.257Z,95515.09
2022-10-20T12:37:58.035Z,95506.16
2022-10-20T12:40:49.750Z,95504.13
2022-10-20T12:43:26.258Z,95518.97
2022-10-20T12:45:58.650Z,95502.09
2022-10-20T12:48:25.938Z,95498.03
2022-10-20T12:50:53.264Z,95512.66
2022-10-20T12:53:28.936Z,95507.03
2022-10-20T12:56:04.781Z,95510.81
2022-10-20T12:58:36.854Z,95509.31
2022-10-20T13:01:10.308Z,95516.16
2022-10-20T13:03:43.021Z,95517.84
2022-10-20T13:06:26.299Z,95506.34
2022-10-20T13:09:05.067Z,95501.19
2022-10-20T13:11:37.983Z,95501.63
2022-10-20T13:14:13.601Z,95506.41
2022-10-20T13:16:47.467Z,95501.78
2022-10-20T13:19:18.041Z,95495.13
2022-10-20T13:21:49.349Z,95499.94
2022-10-20T13:24:29.471Z,95506.97
2022-10-20T13:27:01.547Z,95501.63
2022-10-20T13:29:38.444Z,95497.72
2022-10-20T13:32:31.862Z,95500.53
2022-10-20T13:35:11.038Z,95492.00
2022-10-20T13:37:56.584Z,95494.22
2022-10-20T13:40:30.077Z,95493.56
2022-10-20T13:43:31.366Z,95491.81
2022-10-20T13:46:10.296Z,95492.25
2022-10-20T13:49:02.389Z,95492.38
2022-10-20T13:51:35.119Z,95493.06
2022-10-20T13:54:04.666Z,95489.94
2022-10-20T13:56:36.144Z,95488.84
2022-10-20T13:59:20.748Z,95493.50
2022-10-20T14:02:27.452Z,95501.34
2022-10-20T14:05:14.384Z,95493.94
2022-10-20T14:07:43.769Z,95499.91
2022-10-20T14:10:27.726Z,95497.78
2022-10-20T14:12:55.411Z,95501.00
2022-10-20T14:15:32.920Z,95501.81
2022-10-20T14:18:03.543Z,95495.56
2022-10-20T14:20:32.817Z,95500.03
2022-10-20T14:23:02.146Z,95502.13
2022-10-20T14:25:31.456Z,95498.19
2022-10-20T14:27:59.150Z,95497.81
2022-10-20T14:30:26.814Z,95496.13
2022-10-20T14:32:54.606Z,95488.13
2022-10-20T14:35:30.675Z,95490.06
2022-10-20T14:38:03.238Z,95479.66
2022-10-20T14:40:38.028Z,95479.06
2022-10-20T14:43:12.204Z,95479.47
2022-10-20T14:45:38.943Z,95482.13
2022-10-20T14:48:12.906Z,95474.97
2022-10-20T14:50:42.546Z,95473.69
2022-10-20T14:53:32.936Z,95467.72
2022-10-20T14:56:02.599Z,95463.66
2022-10-20T14:58:30.930Z,95473.16
2022-10-20T15:01:32.567Z,95468.84
2022-10-20T15:04:16.777Z,95466.16
2022-10-20T15:06:44.377Z,95481.97
2022-10-20T15:09:24.042Z,95472.59
2022-10-20T15:11:50.639Z,95458.88
2022-10-20T15:14:17.718Z,95465.44
2022-10-20T15:16:47.049Z,95473.31
2022-10-20T15:19:32.106Z,95473.75
2022-10-20T15:22:02.930Z,95464.84
2022-10-20T15:24:29.706Z,95466.25
2022-10-20T15:26:57.226Z,95451.19
2022-10-20T15:29:24.423Z,95462.25
2022-10-20T15:31:51.403Z,95463.69
2022-10-20T15:34:18.088Z,95457.44
2022-10-20T15:36:46.416Z,95454.59
2022-10-20T15:39:15.565Z,95457.63
2022-10-20T15:41:42.321Z,95452.75
2022-10-20T15:44:16.460Z,95452.19
2022-10-20T15:46:45.116Z,95439.81
2022-10-20T15:49:12.281Z,95431.16
2022-10-20T15:51:47.301Z,95427.16
2022-10-20T15:54:16.423Z,95436.00
2022-10-20T15:56:43.733Z,95418.44
2022-10-20T15:59:10.475Z,95410.66
2022-10-20T16:01:37.317Z,95401.91
2022-10-20T16:04:19.024Z,95400.09
2022-10-20T16:06:46.156Z,95393.47
2022-10-20T16:09:15.986Z,95387.50
2022-10-20T16:11:43.708Z,95378.41
2022-10-20T16:14:10.689Z,95378.41
2022-10-20T16:16:37.263Z,95381.75
2022-10-20T16:19:03.837Z,95377.97
2022-10-20T16:21:30.448Z,95377.19
2022-10-20T16:23:57.092Z,95373.97
2022-10-20T16:26:23.731Z,95373.69
2022-10-20T16:28:50.346Z,95371.72
2022-10-20T16:31:17.278Z,95359.78
2022-10-20T16:33:44.250Z,95348.75
2022-10-20T16:36:17.139Z,95353.47
2022-10-20T16:38:44.216Z,95360.09
2022-10-20T16:41:13.906Z,95355.88
2022-10-20T16:43:43.347Z,95345.81
2022-10-20T16:46:12.003Z,95358.19
2022-10-20T16:48:41.456Z,95364.16
2022-10-20T16:51:10.995Z,95377.81
2022-10-20T16:53:38.347Z,95383.78
2022-10-20T16:56:05.820Z,95394.63
2022-10-20T16:58:32.466Z,95395.72
2022-10-20T17:01:06.272Z,95397.25
2022-10-20T17:03:33.187Z,95386.28
2022-10-20T17:06:02.945Z,95374.06
2022-10-20T17:08:31.983Z,95375.66
2022-10-20T17:11:00.942Z,95389.91
2022-10-20T17:13:28.275Z,95388.16
2022-10-20T17:15:55.402Z,95390.72
2022-10-20T17:18:23.863Z,95395.44
2022-10-20T17:20:55.010Z,95397.03
2022-10-20T17:23:23.411Z,95391.78
2022-10-20T17:25:51.392Z,95389.75
2022-10-20T17:28:19.360Z,95387.44
2022-10-20T17:30:48.016Z,95390.28
2022-10-20T17:33:16.059Z,95390.28
2022-10-20T17:35:47.488Z,95385.91
2022-10-20T17:38:14.158Z,95378.84
2022-10-20T17:40:43.606Z,95369.47
2022-10-20T17:43:10.203Z,95387.94
2022-10-20T17:45:38.213Z,95399.38
2022-10-20T17:48:05.828Z,95384.47
2022-10-20T17:50:33.034Z,95394.34
2022-10-20T17:53:01.385Z,95388.75
2022-10-20T17:55:28.563Z,95386.19
2022-10-20T17:57:55.659Z,95381.81
2022-10-20T18:00:31.785Z,95381.34
2022-10-20T18:03:08.783Z,95386.13
2022-10-20T18:05:38.513Z,95386.88
2022-10-20T18:08:05.222Z,95388.16
2022-10-20T18:10:31.759Z,95381.34
2022-10-20T18:12:58.395Z,95379.00
2022-10-20T18:15:24.927Z,95376.16
2022-10-20T18:17:51.631Z,95373.25
2022-10-20T18:20:18.166Z,95369.03
2022-10-20T18:22:45.558Z,95367.66
2022-10-20T18:25:12.145Z,95361.63
2022-10-20T18:27:38.717Z,95367.66
2022-10-20T18:30:05.896Z,95360.97
2022-10-20T18:32:34.770Z,95366.88
2022-10-20T18:35:02.338Z,95372.41
2022-10-20T18:37:28.877Z,95368.47
2022-10-20T18:39:56.176Z,95356.16
2022-10-20T18:42:22.759Z,95352.91
2022-10-20T18:44:49.265Z,95353.69
2022-10-20T18:47:16.043Z,95355.72
2022-10-20T18:49:42.768Z,95352.66
2022-10-20T18:52:09.293Z,95342.19
2022-10-20T18:54:35.906Z,95346.13
2022-10-20T18:57:02.434Z,95345.19
2022-10-20T18:59:29.092Z,95328.09
2022-10-20T19:01:55.679Z,95324.38
2022-10-20T19:04:22.193Z,95324.81
2022-10-20T19:06:49.101Z,95316.91
2022-10-20T19:09:21.025Z,95316.69
2022-10-20T19:14:20.663Z,95301.19
2022-10-20T19:16:48.701Z,95303.94
2022-10-20T19:19:16.237Z,95303.94
2022-10-20T19:21:42.924Z,95318.66
2022-10-20T19:24:13.722Z,95311.00
2022-10-20T19:26:56.898Z,95296.81
2022-10-20T19:29:33.181Z,95303.81
2022-10-20T19:32:01.689Z,95309.34
2022-10-20T19:34:38.069Z,95290.84
2022-10-20T19:37:06.297Z,95281.69
2022-10-20T19:39:37.142Z,95258.84
2022-10-20T19:42:05.579Z,95250.88
2022-10-20T19:44:32.666Z,95251.59
2022-10-20T19:46:59.279Z,95247.75
2022-10-20T19:49:26.970Z,95243.88
2022-10-20T19:51:53.668Z,95239.81
2022-10-20T19:54:20.598Z,95240.69
2022-10-20T19:56:47.166Z,95242.56
2022-10-20T19:59:13.942Z,95242.66
2022-10-20T20:01:40.640Z,95237.06
2022-10-20T20:04:07.419Z,95235.88
2022-10-20T20:06:34.930Z,95228.75
2022-10-20T20:09:05.386Z,95235.16
2022-10-20T20:11:32.617Z,95247.31
2022-10-20T20:14:01.653Z,95255.22
2022-10-20T20:16:29.179Z,95257.19
2022-10-20T20:18:56.231Z,95252.41
2022-10-20T20:21:23.345Z,95252.53
2022-10-20T20:23:59.698Z,95247.00
2022-10-20T20:26:28.363Z,95232.38
2022-10-20T20:28:55.402Z,95235.09
2022-10-20T20:31:22.629Z,95233.56
2022-10-20T20:33:49.966Z,95239.81
2022-10-20T20:36:16.643Z,95249.34
2022-10-20T20:38:43.275Z,95261.19
2022-10-20T20:41:15.939Z,95284.91
2022-10-20T20:43:45.364Z,95319.28
2022-10-20T20:46:17.815Z,95313.69
2022-10-20T20:48:44.986Z,95329.97
2022-10-20T20:51:13.075Z,95312.81
2022-10-20T20:53:39.836Z,95314.63
2022-10-20T20:56:11.738Z,95315.56
2022-10-20T20:58:38.997Z,95317.28
2022-10-20T21:01:13.425Z,95302.13
2022-10-20T21:03:40.682Z,95307.66
2022-10-20T21:06:10.000Z,95305.91
2022-10-20T21:08:38.335Z,95320.97
2022-10-20T21:11:10.891Z,95306.53
2022-10-20T21:13:38.412Z,95306.03
2022-10-20T21:16:17.806Z,95280.56
2022-10-20T21:18:47.872Z,95294.91
2022-10-20T21:21:17.099Z,95295.19
2022-10-20T21:23:43.795Z,95293.38
2022-10-20T21:26:12.499Z,95306.81
2022-10-20T21:28:39.467Z,95298.81
2022-10-20T21:31:11.748Z,95300.97
2022-10-20T21:33:39.118Z,95300.00
2022-10-20T21:36:12.248Z,95286.28
2022-10-20T21:38:40.335Z,95294.38
2022-10-20T21:41:12.453Z,95287.69
2022-10-20T21:43:41.914Z,95282.44
2022-10-20T21:46:30.400Z,95283.69
2022-10-20T21:49:05.188Z,95272.66
2022-10-20T21:51:37.596Z,95267.75
2022-10-20T21:54:10.903Z,95261.09
2022-10-20T21:56:41.029Z,95276.41
2022-10-20T21:59:13.919Z,95246.78
2022-10-20T22:01:40.594Z,95244.03
2022-10-20T22:04:07.108Z,95238.06
2022-10-20T22:06:33.682Z,95233.06
2022-10-20T22:09:00.420Z,95215.56
2022-10-20T22:11:30.007Z,95205.06
2022-10-20T22:13:57.481Z,95213.78
2022-10-20T22:16:27.377Z,95239.81
2022-10-20T22:18:56.290Z,95243.84
2022-10-20T22:21:23.117Z,95268.47
2022-10-20T22:23:55.550Z,95282.84
2022-10-20T22:26:25.684Z,95285.81
2022-10-20T22:28:52.930Z,95287.84
2022-10-20T22:31:19.606Z,95278.44
2022-10-20T22:33:46.251Z,95287.59
2022-10-20T22:36:12.903Z,95309.75
2022-10-20T22:38:39.477Z,95304.56
2022-10-20T22:41:06.230Z,95309.66
2022-10-20T22:43:32.806Z,95308.59
2022-10-20T22:45:59.582Z,95314.00
2022-10-20T22:48:26.319Z,95319.97
2022-10-20T22:50:53.105Z,95326.28
2022-10-20T22:53:19.978Z,95330.19
2022-10-20T22:55:46.757Z,95321.91
2022-10-20T22:58:13.354Z,95316.31
2022-10-20T23:00:41.226Z,95317.03
2022-10-20T23:03:08.227Z,95300.84
2022-10-20T23:05:34.852Z,95302.34
2022-10-20T23:08:01.419Z,95284.81
2022-10-20T23:10:28.153Z,95288.44
2022-10-20T23:12:54.722Z,95290.94
2022-10-20T23:15:21.302Z,95301.41
2022-10-20T23:17:48.120Z,95305.91
2022-10-20T23:20:14.953Z,95310.97
2022-10-20T23:22:41.602Z,95320.28
2022-10-20T23:25:08.547Z,95318.09
2022-10-20T23:27:35.818Z,95302.72
2022-10-20T23:30:02.954Z,95301.13
2022-10-20T23:32:29.945Z,95294.00
2022-10-20T23:34:56.461Z,95297.91
2022-10-20T23:37:23.751Z,95280.94
2022-10-20T23:39:50.428Z,95284.22
2022-10-20T23:42:17.105Z,95289.75
2022-10-20T23:44:43.691Z,95279.53
2022-10-20T23:47:10.289Z,95279.88
2022-10-20T23:49:36.844Z,95295.34
2022-10-20T23:52:03.397Z,95287.88
2022-10-20T23:54:30.589Z,95269.06
2022-10-20T23:56:57.190Z,95271.50
2022-10-20T23:59:23.788Z,95269.19
